sensor_id;sensor_type;location;lat;lon;timestamp;pressure;altitude;pressure_sealevel;temperature;humidity
13765;BME280;6953;48.810;9.204;2023-12-07T00:02:23;99077.78;;;5.63;88.28
13765;BME280;6953;48.810;9.204;2023-12-07T00:04:48;98814.22;;;4.09;87.65
13765;BME280;6953;48.810;9.204;2023-12-07T00:07:13;99018.22;;;5.22;88.31
13765;BME280;6953;48.810;9.204;2023-12-07T00:09:38;99094.78;;;5.76;88.67
13765;BME280;6953;48.810;9.204;2023-12-07T00:12:04;99104.31;;;5.79;88.81
13765;BME280;6953;48.810;9.204;2023-12-07T00:14:29;99119.94;;;5.79;88.07
13765;BME280;6953;48.810;9.204;2023-12-07T00:16:55;99106.00;;;5.80;88.49
13765;BME280;6953;48.810;9.204;2023-12-07T00:19:20;99099.13;;;5.77;88.24
13765;BME280;6953;48.810;9.204;2023-12-07T00:21:45;98998.38;;;5.18;87.99
13765;BME280;6953;48.810;9.204;2023-12-07T00:24:10;99105.19;;;5.76;89.26
13765;BME280;6953;48.810;9.204;2023-12-07T00:26:36;99094.91;;;5.72;88.79
13765;BME280;6953;48.810;9.204;2023-12-07T00:29:01;99109.38;;;5.83;88.36
13765;BME280;6953;48.810;9.204;2023-12-07T00:31:26;98916.53;;;4.69;88.23
13765;BME280;6953;48.810;9.204;2023-12-07T00:33:52;98857.59;;;4.38;87.83
13765;BME280;6953;48.810;9.204;2023-12-07T00:36:17;98874.69;;;4.46;87.89
13765;BME280;6953;48.810;9.204;2023-12-07T00:38:42;99121.28;;;5.92;87.90
13765;BME280;6953;48.810;9.204;2023-12-07T00:41:07;99108.34;;;5.89;88.10
13765;BME280;6953;48.810;9.204;2023-12-07T00:43:34;99048.56;;;5.54;87.25
13765;BME280;6953;48.810;9.204;2023-12-07T00:46:00;99105.91;;;5.83;87.59
13765;BME280;6953;48.810;9.204;2023-12-07T00:48:25;98882.63;;;4.40;88.26
13765;BME280;6953;48.810;9.204;2023-12-07T00:50:50;99120.94;;;5.72;88.80
13765;BME280;6953;48.810;9.204;2023-12-07T00:53:15;99128.06;;;5.65;89.08
13765;BME280;6953;48.810;9.204;2023-12-07T00:55:41;99126.44;;;5.61;88.51
13765;BME280;6953;48.810;9.204;2023-12-07T00:58:06;98843.97;;;3.95;89.55
13765;BME280;6953;48.810;9.204;2023-12-07T01:00:31;99167.31;;;5.58;91.46
13765;BME280;6953;48.810;9.204;2023-12-07T01:02:56;99047.13;;;5.10;91.13
13765;BME280;6953;48.810;9.204;2023-12-07T01:05:22;98838.16;;;3.86;91.78
13765;BME280;6953;48.810;9.204;2023-12-07T01:07:47;99122.63;;;5.41;93.04
13765;BME280;6953;48.810;9.204;2023-12-07T01:10:12;99097.50;;;5.07;93.28
13765;BME280;6953;48.810;9.204;2023-12-07T01:12:39;99125.59;;;5.27;93.84
13765;BME280;6953;48.810;9.204;2023-12-07T01:15:04;99135.13;;;5.27;94.58
13765;BME280;6953;48.810;9.204;2023-12-07T01:17:30;99180.28;;;5.23;94.36
13765;BME280;6953;48.810;9.204;2023-12-07T01:19:55;99137.03;;;5.20;94.39
13765;BME280;6953;48.810;9.204;2023-12-07T01:22:20;99128.59;;;5.11;94.72
13765;BME280;6953;48.810;9.204;2023-12-07T01:24:46;99145.66;;;5.21;95.27
13765;BME280;6953;48.810;9.204;2023-12-07T01:27:12;99147.44;;;5.20;95.44
13765;BME280;6953;48.810;9.204;2023-12-07T01:29:37;99069.53;;;4.81;95.84
13765;BME280;6953;48.810;9.204;2023-12-07T01:32:02;98930.38;;;4.00;95.26
13765;BME280;6953;48.810;9.204;2023-12-07T01:34:28;99172.44;;;5.26;97.07
13765;BME280;6953;48.810;9.204;2023-12-07T01:36:53;98860.34;;;3.62;95.82
13765;BME280;6953;48.810;9.204;2023-12-07T01:39:18;99142.09;;;5.25;96.55
13765;BME280;6953;48.810;9.204;2023-12-07T01:41:44;99096.13;;;4.92;96.59
13765;BME280;6953;48.810;9.204;2023-12-07T01:44:09;99148.38;;;5.18;97.42
13765;BME280;6953;48.810;9.204;2023-12-07T01:46:35;99178.75;;;5.16;97.79
13765;BME280;6953;48.810;9.204;2023-12-07T01:49:01;99127.28;;;4.94;97.58
13765;BME280;6953;48.810;9.204;2023-12-07T01:51:27;99166.00;;;5.06;97.64
13765;BME280;6953;48.810;9.204;2023-12-07T01:53:52;99157.41;;;5.02;97.85
13765;BME280;6953;48.810;9.204;2023-12-07T01:56:18;98982.47;;;3.93;98.13
13765;BME280;6953;48.810;9.204;2023-12-07T01:58:44;98868.91;;;3.28;98.22
13765;BME280;6953;48.810;9.204;2023-12-07T02:01:09;98874.91;;;3.30;98.56
13765;BME280;6953;48.810;9.204;2023-12-07T02:03:39;99160.19;;;4.95;98.51
13765;BME280;6953;48.810;9.204;2023-12-07T02:06:04;99125.22;;;4.70;98.86
13765;BME280;6953;48.810;9.204;2023-12-07T02:08:30;98822.38;;;2.81;99.07
13765;BME280;6953;48.810;9.204;2023-12-07T02:10:55;98882.03;;;3.20;98.80
13765;BME280;6953;48.810;9.204;2023-12-07T02:13:21;98878.56;;;3.20;99.07
13765;BME280;6953;48.810;9.204;2023-12-07T02:15:46;98857.22;;;3.07;99.29
13765;BME280;6953;48.810;9.204;2023-12-07T02:18:25;99204.72;;;4.80;99.96
13765;BME280;6953;48.810;9.204;2023-12-07T02:23:54;99164.16;;;4.73;99.39
13765;BME280;6953;48.810;9.204;2023-12-07T02:26:22;99165.97;;;4.69;100.00
13765;BME280;6953;48.810;9.204;2023-12-07T02:28:48;99163.53;;;4.62;100.00
13765;BME280;6953;48.810;9.204;2023-12-07T02:31:14;99161.94;;;4.56;100.00
13765;BME280;6953;48.810;9.204;2023-12-07T02:33:39;99193.25;;;4.50;100.00
13765;BME280;6953;48.810;9.204;2023-12-07T02:36:05;99158.47;;;4.16;100.00
13765;BME280;6953;48.810;9.204;2023-12-07T02:38:30;99167.66;;;4.31;100.00
13765;BME280;6953;48.810;9.204;2023-12-07T02:40:56;99069.56;;;3.63;100.00
13765;BME280;6953;48.810;9.204;2023-12-07T02:43:22;99075.81;;;3.53;100.00
13765;BME280;6953;48.810;9.204;2023-12-07T02:45:48;98922.13;;;2.56;100.00
13765;BME280;6953;48.810;9.204;2023-12-07T02:48:13;99180.59;;;3.90;100.00
13765;BME280;6953;48.810;9.204;2023-12-07T02:50:38;98935.34;;;2.43;100.00
13765;BME280;6953;48.810;9.204;2023-12-07T02:53:03;99144.84;;;3.59;100.00
13765;BME280;6953;48.810;9.204;2023-12-07T02:55:29;99160.47;;;3.57;100.00
13765;BME280;6953;48.810;9.204;2023-12-07T02:57:54;99165.75;;;3.53;100.00
13765;BME280;6953;48.810;9.204;2023-12-07T03:00:19;99157.97;;;3.53;100.00
13765;BME280;6953;48.810;9.204;2023-12-07T03:02:46;98921.03;;;2.19;100.00
13765;BME280;6953;48.810;9.204;2023-12-07T03:05:13;99205.16;;;3.73;100.00
13765;BME280;6953;48.810;9.204;2023-12-07T03:07:38;99202.41;;;3.80;100.00
13765;BME280;6953;48.810;9.204;2023-12-07T03:10:04;99203.13;;;3.88;100.00
13765;BME280;6953;48.810;9.204;2023-12-07T03:12:29;99176.19;;;3.95;100.00
13765;BME280;6953;48.810;9.204;2023-12-07T03:14:54;99176.06;;;4.01;100.00
13765;BME280;6953;48.810;9.204;2023-12-07T03:17:20;99147.78;;;3.88;100.00
13765;BME280;6953;48.810;9.204;2023-12-07T03:19:45;99094.53;;;3.67;100.00
13765;BME280;6953;48.810;9.204;2023-12-07T03:22:10;99173.16;;;4.17;100.00
13765;BME280;6953;48.810;9.204;2023-12-07T03:24:38;99174.81;;;4.20;100.00
13765;BME280;6953;48.810;9.204;2023-12-07T03:27:04;99052.50;;;3.52;100.00
13765;BME280;6953;48.810;9.204;2023-12-07T03:29:31;99178.16;;;4.26;100.00
13765;BME280;6953;48.810;9.204;2023-12-07T03:31:56;99130.19;;;4.02;100.00
13765;BME280;6953;48.810;9.204;2023-12-07T03:34:21;99162.81;;;4.14;100.00
13765;BME280;6953;48.810;9.204;2023-12-07T03:36:47;99085.91;;;3.67;100.00
13765;BME280;6953;48.810;9.204;2023-12-07T03:39:14;99163.88;;;4.06;100.00
13765;BME280;6953;48.810;9.204;2023-12-07T03:41:39;99183.75;;;4.07;100.00
13765;BME280;6953;48.810;9.204;2023-12-07T03:44:04;99185.59;;;4.01;100.00
13765;BME280;6953;48.810;9.204;2023-12-07T03:46:30;99104.38;;;3.52;100.00
13765;BME280;6953;48.810;9.204;2023-12-07T03:48:55;99174.63;;;3.87;100.00
13765;BME280;6953;48.810;9.204;2023-12-07T03:51:20;99150.03;;;3.59;100.00
13765;BME280;6953;48.810;9.204;2023-12-07T03:53:46;99184.94;;;3.88;100.00
13765;BME280;6953;48.810;9.204;2023-12-07T03:56:22;98958.38;;;2.58;100.00
13765;BME280;6953;48.810;9.204;2023-12-07T03:58:47;99209.09;;;3.93;100.00
13765;BME280;6953;48.810;9.204;2023-12-07T04:01:13;99188.38;;;3.92;100.00
13765;BME280;6953;48.810;9.204;2023-12-07T04:03:38;99194.59;;;3.82;100.00
13765;BME280;6953;48.810;9.204;2023-12-07T04:06:03;98899.84;;;1.98;100.00
13765;BME280;6953;48.810;9.204;2023-12-07T04:08:29;99230.50;;;3.57;100.00
13765;BME280;6953;48.810;9.204;2023-12-07T04:10:54;99197.88;;;3.44;100.00
13765;BME280;6953;48.810;9.204;2023-12-07T04:13:19;99205.81;;;3.34;100.00
13765;BME280;6953;48.810;9.204;2023-12-07T04:15:44;99167.41;;;3.06;100.00
13765;BME280;6953;48.810;9.204;2023-12-07T04:18:10;98936.63;;;1.59;100.00
13765;BME280;6953;48.810;9.204;2023-12-07T04:20:35;99201.97;;;3.03;100.00
13765;BME280;6953;48.810;9.204;2023-12-07T04:23:01;99205.59;;;2.92;100.00
13765;BME280;6953;48.810;9.204;2023-12-07T04:25:26;98902.81;;;1.09;100.00
13765;BME280;6953;48.810;9.204;2023-12-07T04:27:51;99207.47;;;2.84;100.00
13765;BME280;6953;48.810;9.204;2023-12-07T04:30:16;99205.72;;;2.84;100.00
13765;BME280;6953;48.810;9.204;2023-12-07T04:32:42;99209.19;;;2.83;100.00
13765;BME280;6953;48.810;9.204;2023-12-07T04:35:07;99161.31;;;2.49;100.00
13765;BME280;6953;48.810;9.204;2023-12-07T04:37:33;99211.09;;;2.71;100.00
13765;BME280;6953;48.810;9.204;2023-12-07T04:39:59;99250.84;;;2.67;100.00
13765;BME280;6953;48.810;9.204;2023-12-07T04:42:24;99247.38;;;2.69;100.00
13765;BME280;6953;48.810;9.204;2023-12-07T04:44:49;99210.28;;;2.66;100.00
13765;BME280;6953;48.810;9.204;2023-12-07T04:47:14;98984.50;;;1.21;100.00
13765;BME280;6953;48.810;9.204;2023-12-07T04:49:40;98883.66;;;0.56;100.00
13765;BME280;6953;48.810;9.204;2023-12-07T04:52:05;99251.94;;;2.48;100.00
13765;BME280;6953;48.810;9.204;2023-12-07T04:54:30;98929.88;;;0.79;100.00
13765;BME280;6953;48.810;9.204;2023-12-07T04:56:56;99218.41;;;2.39;100.00
13765;BME280;6953;48.810;9.204;2023-12-07T04:59:21;99219.28;;;2.36;100.00
13765;BME280;6953;48.810;9.204;2023-12-07T05:01:47;98984.72;;;1.00;100.00
13765;BME280;6953;48.810;9.204;2023-12-07T05:04:12;99210.75;;;2.30;100.00
13765;BME280;6953;48.810;9.204;2023-12-07T05:06:37;99211.72;;;2.23;100.00
13765;BME280;6953;48.810;9.204;2023-12-07T05:09:03;99213.56;;;2.12;100.00
13765;BME280;6953;48.810;9.204;2023-12-07T05:11:28;98961.44;;;0.13;100.00
13765;BME280;6953;48.810;9.204;2023-12-07T05:13:53;99213.84;;;1.87;100.00
13765;BME280;6953;48.810;9.204;2023-12-07T05:16:18;99223.59;;;1.59;100.00
13765;BME280;6953;48.810;9.204;2023-12-07T05:18:44;99213.94;;;1.76;100.00
13765;BME280;6953;48.810;9.204;2023-12-07T05:21:09;99238.06;;;1.77;100.00
13765;BME280;6953;48.810;9.204;2023-12-07T05:23:34;99118.09;;;1.10;100.00
13765;BME280;6953;48.810;9.204;2023-12-07T05:26:00;99152.44;;;1.21;100.00
13765;BME280;6953;48.810;9.204;2023-12-07T05:28:26;99234.78;;;1.60;100.00
13765;BME280;6953;48.810;9.204;2023-12-07T05:30:51;99228.75;;;1.61;100.00
13765;BME280;6953;48.810;9.204;2023-12-07T05:33:17;99217.63;;;1.51;100.00
13765;BME280;6953;48.810;9.204;2023-12-07T05:35:42;99233.91;;;1.62;100.00
13765;BME280;6953;48.810;9.204;2023-12-07T05:38:08;98860.53;;;-0.49;100.00
13765;BME280;6953;48.810;9.204;2023-12-07T05:40:33;99215.00;;;1.57;100.00
13765;BME280;6953;48.810;9.204;2023-12-07T05:42:59;99252.88;;;1.60;100.00
13765;BME280;6953;48.810;9.204;2023-12-07T05:45:24;99258.13;;;1.52;100.00
13765;BME280;6953;48.810;9.204;2023-12-07T05:47:49;98930.78;;;-0.27;100.00
13765;BME280;6953;48.810;9.204;2023-12-07T05:50:15;99074.59;;;0.59;100.00
13765;BME280;6953;48.810;9.204;2023-12-07T05:52:40;99114.06;;;0.75;100.00
13765;BME280;6953;48.810;9.204;2023-12-07T05:55:06;99228.16;;;1.32;100.00
13765;BME280;6953;48.810;9.204;2023-12-07T05:57:31;99229.03;;;1.28;100.00
13765;BME280;6953;48.810;9.204;2023-12-07T05:59:56;98891.56;;;-0.71;100.00
13765;BME280;6953;48.810;9.204;2023-12-07T06:02:22;98941.28;;;-0.56;100.00
13765;BME280;6953;48.810;9.204;2023-12-07T06:04:47;99218.53;;;1.44;100.00
13765;BME280;6953;48.810;9.204;2023-12-07T06:07:12;99227.94;;;1.54;100.00
13765;BME280;6953;48.810;9.204;2023-12-07T06:09:37;99229.69;;;1.52;100.00
13765;BME280;6953;48.810;9.204;2023-12-07T06:12:03;99259.75;;;1.64;100.00
13765;BME280;6953;48.810;9.204;2023-12-07T06:14:29;99250.28;;;1.60;100.00
13765;BME280;6953;48.810;9.204;2023-12-07T06:16:54;99231.22;;;1.71;100.00
13765;BME280;6953;48.810;9.204;2023-12-07T06:19:20;99126.69;;;1.10;100.00
13765;BME280;6953;48.810;9.204;2023-12-07T06:21:46;99223.56;;;1.62;100.00
13765;BME280;6953;48.810;9.204;2023-12-07T06:24:11;99224.50;;;1.55;100.00
13765;BME280;6953;48.810;9.204;2023-12-07T06:26:36;99266.69;;;1.57;100.00
13765;BME280;6953;48.810;9.204;2023-12-07T06:29:02;99221.84;;;1.60;100.00
13765;BME280;6953;48.810;9.204;2023-12-07T06:31:27;99162.75;;;1.21;100.00
13765;BME280;6953;48.810;9.204;2023-12-07T06:33:52;99226.13;;;1.64;100.00
13765;BME280;6953;48.810;9.204;2023-12-07T06:36:22;98900.72;;;-0.24;100.00
13765;BME280;6953;48.810;9.204;2023-12-07T06:38:47;99232.13;;;1.67;100.00
13765;BME280;6953;48.810;9.204;2023-12-07T06:41:14;99120.69;;;1.10;100.00
13765;BME280;6953;48.810;9.204;2023-12-07T06:43:39;99152.38;;;1.30;100.00
13765;BME280;6953;48.810;9.204;2023-12-07T06:46:05;99209.75;;;1.63;100.00
13765;BME280;6953;48.810;9.204;2023-12-07T06:48:30;99182.44;;;1.37;100.00
13765;BME280;6953;48.810;9.204;2023-12-07T06:50:55;99227.81;;;1.71;100.00
13765;BME280;6953;48.810;9.204;2023-12-07T06:53:21;99228.63;;;1.74;100.00
13765;BME280;6953;48.810;9.204;2023-12-07T06:55:46;99235.47;;;1.77;100.00
13765;BME280;6953;48.810;9.204;2023-12-07T06:58:11;99269.16;;;1.69;100.00
13765;BME280;6953;48.810;9.204;2023-12-07T07:00:37;99221.00;;;1.59;100.00
13765;BME280;6953;48.810;9.204;2023-12-07T07:03:02;99236.41;;;1.71;100.00
13765;BME280;6953;48.810;9.204;2023-12-07T07:05:27;99229.50;;;1.73;100.00
13765;BME280;6953;48.810;9.204;2023-12-07T07:07:53;99244.13;;;1.74;100.00
13765;BME280;6953;48.810;9.204;2023-12-07T07:10:18;98909.25;;;-0.17;100.00
13765;BME280;6953;48.810;9.204;2023-12-07T07:12:43;99214.13;;;1.57;100.00
13765;BME280;6953;48.810;9.204;2023-12-07T07:15:09;99241.69;;;1.58;100.00
13765;BME280;6953;48.810;9.204;2023-12-07T07:17:34;98951.19;;;0.07;100.00
13765;BME280;6953;48.810;9.204;2023-12-07T07:19:59;99245.84;;;1.78;100.00
13765;BME280;6953;48.810;9.204;2023-12-07T07:22:25;99081.19;;;0.93;100.00
13765;BME280;6953;48.810;9.204;2023-12-07T07:24:50;99243.13;;;1.87;100.00
13765;BME280;6953;48.810;9.204;2023-12-07T07:27:15;99211.38;;;1.76;100.00
13765;BME280;6953;48.810;9.204;2023-12-07T07:29:41;99235.31;;;1.96;100.00
13765;BME280;6953;48.810;9.204;2023-12-07T07:32:06;99231.81;;;2.00;100.00
13765;BME280;6953;48.810;9.204;2023-12-07T07:34:31;99217.47;;;1.68;100.00
13765;BME280;6953;48.810;9.204;2023-12-07T07:36:57;99236.09;;;2.03;100.00
13765;BME280;6953;48.810;9.204;2023-12-07T07:39:22;99263.69;;;2.01;100.00
13765;BME280;6953;48.810;9.204;2023-12-07T07:41:48;99240.34;;;2.08;100.00
13765;BME280;6953;48.810;9.204;2023-12-07T07:44:13;99255.84;;;2.12;100.00
13765;BME280;6953;48.810;9.204;2023-12-07T07:46:40;99267.88;;;2.15;100.00
13765;BME280;6953;48.810;9.204;2023-12-07T07:49:06;98965.38;;;0.54;100.00
13765;BME280;6953;48.810;9.204;2023-12-07T07:51:31;99241.84;;;2.27;100.00
13765;BME280;6953;48.810;9.204;2023-12-07T07:53:58;99251.22;;;2.35;100.00
13765;BME280;6953;48.810;9.204;2023-12-07T07:56:23;99248.59;;;2.43;100.00
13765;BME280;6953;48.810;9.204;2023-12-07T07:58:49;99245.91;;;2.49;100.00
13765;BME280;6953;48.810;9.204;2023-12-07T08:01:14;99245.00;;;2.54;100.00
13765;BME280;6953;48.810;9.204;2023-12-07T08:03:39;99051.41;;;1.45;100.00
13765;BME280;6953;48.810;9.204;2023-12-07T08:06:06;99161.72;;;2.19;100.00
13765;BME280;6953;48.810;9.204;2023-12-07T08:08:32;99239.66;;;2.66;100.00
13765;BME280;6953;48.810;9.204;2023-12-07T08:10:57;99245.66;;;2.67;100.00
13765;BME280;6953;48.810;9.204;2023-12-07T08:13:22;99243.94;;;2.67;100.00
13765;BME280;6953;48.810;9.204;2023-12-07T08:15:48;99172.84;;;2.26;100.00
13765;BME280;6953;48.810;9.204;2023-12-07T08:18:13;99162.47;;;2.26;100.00
13765;BME280;6953;48.810;9.204;2023-12-07T08:20:39;99163.28;;;2.31;100.00
13765;BME280;6953;48.810;9.204;2023-12-07T08:23:04;99247.94;;;2.91;100.00
13765;BME280;6953;48.810;9.204;2023-12-07T08:25:30;99249.53;;;2.99;100.00
13765;BME280;6953;48.810;9.204;2023-12-07T08:27:57;99163.88;;;2.52;100.00
13765;BME280;6953;48.810;9.204;2023-12-07T08:30:22;99193.72;;;2.77;100.00
13765;BME280;6953;48.810;9.204;2023-12-07T08:32:47;99227.84;;;3.06;100.00
13765;BME280;6953;48.810;9.204;2023-12-07T08:35:12;99249.94;;;3.29;100.00
13765;BME280;6953;48.810;9.204;2023-12-07T08:37:38;99280.09;;;3.36;100.00
13765;BME280;6953;48.810;9.204;2023-12-07T08:40:05;99231.00;;;3.26;100.00
13765;BME280;6953;48.810;9.204;2023-12-07T08:42:30;99245.38;;;3.46;100.00
13765;BME280;6953;48.810;9.204;2023-12-07T08:44:57;99028.88;;;2.19;100.00
13765;BME280;6953;48.810;9.204;2023-12-07T08:47:22;99146.09;;;2.87;100.00
13765;BME280;6953;48.810;9.204;2023-12-07T08:49:47;99209.28;;;3.33;100.00
13765;BME280;6953;48.810;9.204;2023-12-07T08:52:12;99257.34;;;3.55;100.00
13765;BME280;6953;48.810;9.204;2023-12-07T08:54:38;99250.06;;;3.76;100.00
13765;BME280;6953;48.810;9.204;2023-12-07T08:57:03;99276.56;;;3.93;100.00
13765;BME280;6953;48.810;9.204;2023-12-07T08:59:29;98970.56;;;2.51;100.00
13765;BME280;6953;48.810;9.204;2023-12-07T09:01:55;99238.06;;;4.17;100.00
13765;BME280;6953;48.810;9.204;2023-12-07T09:04:20;99233.56;;;4.25;100.00
13765;BME280;6953;48.810;9.204;2023-12-07T09:06:46;99266.34;;;4.32;100.00
13765;BME280;6953;48.810;9.204;2023-12-07T09:09:11;99225.56;;;4.36;100.00
13765;BME280;6953;48.810;9.204;2023-12-07T09:11:37;99234.09;;;4.42;100.00
13765;BME280;6953;48.810;9.204;2023-12-07T09:14:02;98944.03;;;2.87;100.00
13765;BME280;6953;48.810;9.204;2023-12-07T09:16:27;99027.59;;;3.43;100.00
13765;BME280;6953;48.810;9.204;2023-12-07T09:18:53;99226.03;;;4.95;100.00
13765;BME280;6953;48.810;9.204;2023-12-07T09:21:18;99028.47;;;6.19;99.19
13765;BME280;6953;48.810;9.204;2023-12-07T09:23:43;99185.38;;;10.51;77.05
13765;BME280;6953;48.810;9.204;2023-12-07T09:26:10;99071.63;;;12.72;64.17
13765;BME280;6953;48.810;9.204;2023-12-07T09:28:35;99155.59;;;15.26;51.96
13765;BME280;6953;48.810;9.204;2023-12-07T09:31:00;99192.56;;;17.31;46.32
13765;BME280;6953;48.810;9.204;2023-12-07T09:33:26;99169.59;;;18.90;40.88
13765;BME280;6953;48.810;9.204;2023-12-07T09:35:51;99208.53;;;19.57;36.24
13765;BME280;6953;48.810;9.204;2023-12-07T09:38:17;99156.13;;;20.00;35.13
13765;BME280;6953;48.810;9.204;2023-12-07T09:40:43;99220.56;;;21.27;31.62
13765;BME280;6953;48.810;9.204;2023-12-07T09:43:08;99211.09;;;22.11;31.17
13765;BME280;6953;48.810;9.204;2023-12-07T09:45:33;99214.84;;;22.85;28.82
13765;BME280;6953;48.810;9.204;2023-12-07T09:47:59;99214.91;;;22.66;28.16
13765;BME280;6953;48.810;9.204;2023-12-07T09:50:26;99165.72;;;22.76;27.94
13765;BME280;6953;48.810;9.204;2023-12-07T09:52:54;99207.31;;;23.80;27.21
13765;BME280;6953;48.810;9.204;2023-12-07T09:55:22;99060.94;;;23.52;26.10
13765;BME280;6953;48.810;9.204;2023-12-07T09:57:47;99219.88;;;25.27;23.99
13765;BME280;6953;48.810;9.204;2023-12-07T10:00:13;99223.03;;;25.22;24.09
13765;BME280;6953;48.810;9.204;2023-12-07T10:02:40;99081.81;;;24.18;24.03
13765;BME280;6953;48.810;9.204;2023-12-07T10:05:10;99103.53;;;23.72;23.38
13765;BME280;6953;48.810;9.204;2023-12-07T10:07:39;99167.72;;;24.09;22.98
13765;BME280;6953;48.810;9.204;2023-12-07T10:10:05;99210.63;;;24.09;23.42
13765;BME280;6953;48.810;9.204;2023-12-07T10:12:31;99211.47;;;23.92;24.18
13765;BME280;6953;48.810;9.204;2023-12-07T10:14:59;99030.22;;;23.12;23.63
13765;BME280;6953;48.810;9.204;2023-12-07T10:17:24;99186.44;;;24.53;22.79
13765;BME280;6953;48.810;9.204;2023-12-07T10:20:10;99200.63;;;24.45;22.71
13765;BME280;6953;48.810;9.204;2023-12-07T10:22:39;99190.09;;;24.34;22.94
13765;BME280;6953;48.810;9.204;2023-12-07T10:25:04;99012.69;;;23.69;22.58
13765;BME280;6953;48.810;9.204;2023-12-07T10:27:29;99172.72;;;24.56;22.55
13765;BME280;6953;48.810;9.204;2023-12-07T10:29:55;99182.25;;;25.01;21.69
13765;BME280;6953;48.810;9.204;2023-12-07T10:32:21;99199.84;;;25.54;21.47
13765;BME280;6953;48.810;9.204;2023-12-07T10:34:47;99182.34;;;25.92;20.48
13765;BME280;6953;48.810;9.204;2023-12-07T10:37:12;99175.06;;;25.10;21.65
13765;BME280;6953;48.810;9.204;2023-12-07T10:39:37;99164.34;;;25.10;22.10
13765;BME280;6953;48.810;9.204;2023-12-07T10:42:06;99170.75;;;25.50;21.47
13765;BME280;6953;48.810;9.204;2023-12-07T10:44:36;99176.47;;;25.47;20.84
13765;BME280;6953;48.810;9.204;2023-12-07T10:47:06;99160.53;;;25.53;21.10
13765;BME280;6953;48.810;9.204;2023-12-07T10:49:36;99164.72;;;25.97;20.67
13765;BME280;6953;48.810;9.204;2023-12-07T10:52:07;99161.25;;;26.68;20.19
13765;BME280;6953;48.810;9.204;2023-12-07T10:54:43;99003.78;;;25.45;19.80
13765;BME280;6953;48.810;9.204;2023-12-07T10:57:13;99012.44;;;25.15;20.01
13765;BME280;6953;48.810;9.204;2023-12-07T10:59:41;99174.22;;;25.34;20.41
13765;BME280;6953;48.810;9.204;2023-12-07T11:02:10;99156.69;;;24.46;20.79
13765;BME280;6953;48.810;9.204;2023-12-07T11:04:39;99164.03;;;25.13;20.75
13765;BME280;6953;48.810;9.204;2023-12-07T11:07:11;99163.69;;;25.90;20.01
13765;BME280;6953;48.810;9.204;2023-12-07T11:09:44;99072.50;;;25.55;19.60
13765;BME280;6953;48.810;9.204;2023-12-07T11:12:35;99157.00;;;26.26;19.33
13765;BME280;6953;48.810;9.204;2023-12-07T11:15:04;99153.56;;;25.76;19.35
13765;BME280;6953;48.810;9.204;2023-12-07T11:17:50;98999.47;;;24.61;19.74
13765;BME280;6953;48.810;9.204;2023-12-07T11:20:19;99127.22;;;26.20;19.55
13765;BME280;6953;48.810;9.204;2023-12-07T11:22:45;99124.03;;;26.64;19.27
13765;BME280;6953;48.810;9.204;2023-12-07T11:25:10;99132.78;;;26.66;18.64
13765;BME280;6953;48.810;9.204;2023-12-07T11:27:37;99128.03;;;26.84;18.37
13765;BME280;6953;48.810;9.204;2023-12-07T11:30:03;99122.94;;;27.05;18.42
13765;BME280;6953;48.810;9.204;2023-12-07T11:32:28;99138.28;;;27.43;17.96
13765;BME280;6953;48.810;9.204;2023-12-07T11:34:54;99119.31;;;27.97;17.50
13765;BME280;6953;48.810;9.204;2023-12-07T11:37:19;99063.72;;;27.88;17.00
13765;BME280;6953;48.810;9.204;2023-12-07T11:39:45;99117.19;;;27.54;17.35
13765;BME280;6953;48.810;9.204;2023-12-07T11:42:14;99098.94;;;27.72;17.25
13765;BME280;6953;48.810;9.204;2023-12-07T11:44:41;99075.66;;;27.41;17.26
13765;BME280;6953;48.810;9.204;2023-12-07T11:47:07;99100.09;;;26.85;17.50
13765;BME280;6953;48.810;9.204;2023-12-07T11:49:34;99079.81;;;26.42;18.30
13765;BME280;6953;48.810;9.204;2023-12-07T11:51:59;99121.84;;;26.36;17.95
13765;BME280;6953;48.810;9.204;2023-12-07T11:54:28;99052.69;;;25.64;18.15
13765;BME280;6953;48.810;9.204;2023-12-07T11:56:57;99068.34;;;26.40;17.81
13765;BME280;6953;48.810;9.204;2023-12-07T11:59:23;99076.84;;;26.92;17.42
13765;BME280;6953;48.810;9.204;2023-12-07T12:01:51;99049.16;;;26.67;16.88
13765;BME280;6953;48.810;9.204;2023-12-07T12:04:17;99032.47;;;26.72;17.36
13765;BME280;6953;48.810;9.204;2023-12-07T12:06:45;99061.97;;;27.42;17.20
13765;BME280;6953;48.810;9.204;2023-12-07T12:09:14;98918.13;;;26.82;17.20
13765;BME280;6953;48.810;9.204;2023-12-07T12:11:49;98877.94;;;26.35;16.84
13765;BME280;6953;48.810;9.204;2023-12-07T12:14:15;98917.34;;;24.84;18.59
13765;BME280;6953;48.810;9.204;2023-12-07T12:16:50;99029.69;;;24.46;19.17
13765;BME280;6953;48.810;9.204;2023-12-07T12:19:15;99049.19;;;23.18;20.18
13765;BME280;6953;48.810;9.204;2023-12-07T12:21:41;98963.41;;;21.46;21.36
13765;BME280;6953;48.810;9.204;2023-12-07T12:24:08;98874.88;;;19.97;22.78
13765;BME280;6953;48.810;9.204;2023-12-07T12:26:34;98988.00;;;19.83;23.23
13765;BME280;6953;48.810;9.204;2023-12-07T12:29:01;98963.84;;;19.02;24.13
13765;BME280;6953;48.810;9.204;2023-12-07T12:31:27;98997.59;;;18.91;24.67
13765;BME280;6953;48.810;9.204;2023-12-07T12:33:53;98941.16;;;18.45;25.14
13765;BME280;6953;48.810;9.204;2023-12-07T12:36:19;98746.78;;;17.65;25.05
13765;BME280;6953;48.810;9.204;2023-12-07T12:38:48;98812.44;;;18.27;24.95
13765;BME280;6953;48.810;9.204;2023-12-07T12:41:18;98954.75;;;19.77;24.82
13765;BME280;6953;48.810;9.204;2023-12-07T12:43:44;98901.38;;;20.38;23.62
13765;BME280;6953;48.810;9.204;2023-12-07T12:46:10;98951.91;;;20.98;23.62
13765;BME280;6953;48.810;9.204;2023-12-07T12:48:36;98901.31;;;21.15;23.11
13765;BME280;6953;48.810;9.204;2023-12-07T12:51:10;98948.59;;;20.27;24.16
13765;BME280;6953;48.810;9.204;2023-12-07T12:53:43;98946.13;;;20.44;24.34
13765;BME280;6953;48.810;9.204;2023-12-07T12:56:10;98893.25;;;20.10;23.79
13765;BME280;6953;48.810;9.204;2023-12-07T12:58:36;98884.69;;;19.77;24.59
13765;BME280;6953;48.810;9.204;2023-12-07T13:01:02;98945.78;;;20.28;24.43
13765;BME280;6953;48.810;9.204;2023-12-07T13:03:28;98924.66;;;20.36;23.78
13765;BME280;6953;48.810;9.204;2023-12-07T13:05:54;98954.78;;;20.27;24.11
13765;BME280;6953;48.810;9.204;2023-12-07T13:08:19;98874.78;;;19.88;23.93
13765;BME280;6953;48.810;9.204;2023-12-07T13:10:44;98875.81;;;20.36;23.89